CDG4942 ZHCC-ZWWW
Flight info
| Callsign | CDG4942 |
|---|---|
| Flight time | N/A |
| Altitude | 30100 |
| Route | P320 H14 ZS H142 DOVOP W541 OVKAB W94 XFG W213 APESU W197 ANDIM B215 IBANO G470 QTV W99 AGOXA |
| Aircraft | B738/M-SDE2E3FGHIRWXY/LB1 |
Departure
| Time | 2026-04-29 08:51 |
|---|---|
| Airport | Zhengzhou Xinzheng International Airport (ZHCC) |
Arrival
| Time | N/A |
|---|---|
| Airport | Ürümqi Tianshan International Airport (ZWWW) |
| Time | Latitude | Longitude | Altitude | Speed | Heading |
|---|---|---|---|---|---|
| 2026-04-29 08:12 | 34.52978 | 113.85398 | 486 ft | 0 kts | 292° |
| 2026-04-29 08:40 | 34.52976 | 113.85408 | 485 ft | 2 kts | 292° |
| 2026-04-29 08:40 | 34.52970 | 113.85425 | 485 ft | 2 kts | 292° |
| 2026-04-29 08:40 | 34.52964 | 113.85442 | 485 ft | 2 kts | 292° |
| 2026-04-29 08:40 | 34.52958 | 113.85458 | 484 ft | 2 kts | 292° |
| 2026-04-29 08:41 | 34.52951 | 113.85474 | 484 ft | 2 kts | 326° |
| 2026-04-29 08:41 | 34.52937 | 113.85480 | 484 ft | 2 kts | 5° |
| 2026-04-29 08:41 | 34.52929 | 113.85478 | 484 ft | 0 kts | 27° |
| 2026-04-29 08:41 | 34.52924 | 113.85475 | 484 ft | 0 kts | 24° |
| 2026-04-29 08:44 | 34.52930 | 113.85478 | 484 ft | 3 kts | 24° |
| 2026-04-29 08:44 | 34.52971 | 113.85496 | 484 ft | 9 kts | 19° |
| 2026-04-29 08:44 | 34.53041 | 113.85529 | 484 ft | 10 kts | 22° |
| 2026-04-29 08:44 | 34.53103 | 113.85561 | 485 ft | 8 kts | 23° |
| 2026-04-29 08:45 | 34.53162 | 113.85588 | 485 ft | 9 kts | 21° |
| 2026-04-29 08:45 | 34.53224 | 113.85604 | 485 ft | 8 kts | 341° |
| 2026-04-29 08:45 | 34.53258 | 113.85551 | 486 ft | 8 kts | 291° |
| 2026-04-29 08:45 | 34.53284 | 113.85474 | 487 ft | 10 kts | 292° |
| 2026-04-29 08:46 | 34.53316 | 113.85381 | 489 ft | 13 kts | 292° |
| 2026-04-29 08:46 | 34.53354 | 113.85269 | 491 ft | 15 kts | 292° |
| 2026-04-29 08:46 | 34.53399 | 113.85141 | 494 ft | 17 kts | 292° |
| 2026-04-29 08:46 | 34.53448 | 113.84994 | 496 ft | 19 kts | 292° |
| 2026-04-29 08:47 | 34.53496 | 113.84853 | 499 ft | 16 kts | 292° |
| 2026-04-29 08:47 | 34.53537 | 113.84732 | 502 ft | 15 kts | 292° |
| 2026-04-29 08:47 | 34.53574 | 113.84619 | 504 ft | 12 kts | 292° |
| 2026-04-29 08:47 | 34.53605 | 113.84531 | 505 ft | 10 kts | 292° |
| 2026-04-29 08:48 | 34.53635 | 113.84444 | 507 ft | 11 kts | 292° |
| 2026-04-29 08:48 | 34.53661 | 113.84366 | 508 ft | 9 kts | 292° |
| 2026-04-29 08:48 | 34.53689 | 113.84284 | 509 ft | 11 kts | 292° |
| 2026-04-29 08:48 | 34.53724 | 113.84181 | 508 ft | 14 kts | 292° |
| 2026-04-29 08:49 | 34.53761 | 113.84073 | 507 ft | 10 kts | 292° |
| 2026-04-29 08:49 | 34.53801 | 113.84009 | 506 ft | 9 kts | 345° |
| 2026-04-29 08:49 | 34.53860 | 113.84024 | 506 ft | 7 kts | 21° |
| 2026-04-29 08:49 | 34.53909 | 113.84048 | 506 ft | 7 kts | 22° |
| 2026-04-29 08:50 | 34.53937 | 113.84090 | 506 ft | 5 kts | 85° |
| 2026-04-29 08:50 | 34.53928 | 113.84132 | 506 ft | 2 kts | 112° |
| 2026-04-29 08:50 | 34.53928 | 113.84134 | 506 ft | 0 kts | 112° |
| 2026-04-29 08:50 | 34.53898 | 113.84222 | 507 ft | 38 kts | 112° |
| 2026-04-29 08:51 | 34.53703 | 113.84793 | 501 ft | 106 kts | 113° |
| 2026-04-29 08:51 | 34.53345 | 113.85846 | 480 ft | 163 kts | 112° |
| 2026-04-29 08:51 | 34.52886 | 113.87213 | 881 ft | 176 kts | 111° |
| 2026-04-29 08:51 | 34.52454 | 113.88567 | 1573 ft | 177 kts | 111° |
| 2026-04-29 08:52 | 34.51993 | 113.89957 | 2246 ft | 175 kts | 113° |
| 2026-04-29 08:52 | 34.51528 | 113.91305 | 2626 ft | 176 kts | 112° |
| 2026-04-29 08:52 | 34.51046 | 113.92701 | 2932 ft | 180 kts | 112° |
| 2026-04-29 08:52 | 34.50561 | 113.94103 | 3283 ft | 181 kts | 112° |
| 2026-04-29 08:53 | 34.50070 | 113.95521 | 3658 ft | 185 kts | 112° |
| 2026-04-29 08:53 | 34.49567 | 113.96977 | 4095 ft | 191 kts | 112° |
| 2026-04-29 08:53 | 34.49048 | 113.98488 | 4425 ft | 202 kts | 111° |
| 2026-04-29 08:53 | 34.48488 | 114.00117 | 4720 ft | 218 kts | 112° |
| 2026-04-29 08:54 | 34.47876 | 114.01898 | 5037 ft | 234 kts | 112° |
| 2026-04-29 08:54 | 34.47178 | 114.03704 | 5431 ft | 246 kts | 122° |
| 2026-04-29 08:54 | 34.46000 | 114.05279 | 5915 ft | 257 kts | 142° |
| 2026-04-29 08:54 | 34.44395 | 114.06336 | 6288 ft | 272 kts | 163° |
| 2026-04-29 08:55 | 34.42508 | 114.06731 | 6830 ft | 279 kts | 174° |
| 2026-04-29 08:55 | 34.40545 | 114.06918 | 7391 ft | 286 kts | 175° |
| 2026-04-29 08:55 | 34.38554 | 114.07101 | 8012 ft | 290 kts | 175° |
| 2026-04-29 08:55 | 34.36546 | 114.07316 | 8591 ft | 295 kts | 175° |
| 2026-04-29 08:56 | 34.34469 | 114.07423 | 9139 ft | 300 kts | 184° |
| 2026-04-29 08:56 | 34.32431 | 114.06879 | 9673 ft | 301 kts | 208° |
| 2026-04-29 08:56 | 34.30781 | 114.05367 | 9795 ft | 297 kts | 233° |
| 2026-04-29 08:56 | 34.29605 | 114.03319 | 9785 ft | 291 kts | 242° |
| 2026-04-29 08:57 | 34.28564 | 114.01203 | 9787 ft | 292 kts | 243° |
| 2026-04-29 08:57 | 34.27525 | 113.99056 | 10010 ft | 303 kts | 242° |
| 2026-04-29 08:57 | 34.26437 | 113.96894 | 10655 ft | 305 kts | 242° |
| 2026-04-29 08:57 | 34.25295 | 113.94641 | 10905 ft | 321 kts | 241° |
| 2026-04-29 08:58 | 34.24092 | 113.92288 | 11196 ft | 336 kts | 241° |
| 2026-04-29 08:58 | 34.22821 | 113.89825 | 11527 ft | 350 kts | 241° |
| 2026-04-29 08:58 | 34.21516 | 113.87309 | 12085 ft | 355 kts | 241° |
| 2026-04-29 08:58 | 34.20197 | 113.84774 | 12705 ft | 359 kts | 241° |
| 2026-04-29 08:59 | 34.18876 | 113.82237 | 13364 ft | 362 kts | 242° |
| 2026-04-29 08:59 | 34.17511 | 113.79617 | 14025 ft | 365 kts | 242° |
| 2026-04-29 08:59 | 34.16177 | 113.77068 | 14839 ft | 363 kts | 242° |
| 2026-04-29 08:59 | 34.14806 | 113.74453 | 15542 ft | 364 kts | 242° |
| 2026-04-29 09:00 | 34.13456 | 113.71880 | 16261 ft | 365 kts | 242° |
| 2026-04-29 09:00 | 34.12108 | 113.69313 | 16933 ft | 366 kts | 243° |
| 2026-04-29 09:00 | 34.10744 | 113.66707 | 17593 ft | 368 kts | 243° |
| 2026-04-29 09:00 | 34.09372 | 113.64083 | 18220 ft | 370 kts | 243° |
| 2026-04-29 09:01 | 34.07998 | 113.61465 | 18841 ft | 371 kts | 243° |
| 2026-04-29 09:01 | 34.06620 | 113.58843 | 19367 ft | 375 kts | 243° |
| 2026-04-29 09:01 | 34.05214 | 113.56176 | 19930 ft | 377 kts | 243° |
| 2026-04-29 09:01 | 34.03806 | 113.53510 | 20498 ft | 378 kts | 243° |
| 2026-04-29 09:02 | 34.02377 | 113.50795 | 21024 ft | 381 kts | 243° |
| 2026-04-29 09:02 | 34.00960 | 113.48103 | 21593 ft | 381 kts | 242° |
| 2026-04-29 09:02 | 33.99546 | 113.45421 | 22092 ft | 383 kts | 242° |
| 2026-04-29 09:02 | 33.98107 | 113.42693 | 22624 ft | 384 kts | 242° |
| 2026-04-29 09:03 | 33.96661 | 113.39953 | 23091 ft | 386 kts | 242° |
| 2026-04-29 09:03 | 33.95239 | 113.37264 | 23609 ft | 387 kts | 242° |
| 2026-04-29 09:03 | 33.93865 | 113.34443 | 23991 ft | 389 kts | 246° |
| 2026-04-29 09:03 | 33.92802 | 113.31490 | 24499 ft | 386 kts | 254° |
| 2026-04-29 09:04 | 33.92137 | 113.28350 | 24956 ft | 385 kts | 262° |
| 2026-04-29 09:04 | 33.91857 | 113.25146 | 25403 ft | 386 kts | 268° |
| 2026-04-29 09:04 | 33.91871 | 113.21873 | 25806 ft | 388 kts | 274° |
| 2026-04-29 09:04 | 33.92240 | 113.18650 | 26267 ft | 390 kts | 280° |
| 2026-04-29 09:05 | 33.92892 | 113.15479 | 26623 ft | 393 kts | 284° |
| 2026-04-29 09:05 | 33.93690 | 113.12328 | 27054 ft | 395 kts | 285° |
| 2026-04-29 09:05 | 33.94544 | 113.09183 | 27387 ft | 399 kts | 286° |
| 2026-04-29 09:05 | 33.95429 | 113.05973 | 27785 ft | 400 kts | 286° |
| 2026-04-29 09:06 | 33.96298 | 113.02787 | 28160 ft | 402 kts | 286° |
| 2026-04-29 09:06 | 33.97164 | 112.99571 | 28581 ft | 403 kts | 286° |
| 2026-04-29 09:06 | 33.98016 | 112.96371 | 29018 ft | 403 kts | 285° |
| 2026-04-29 09:06 | 33.98857 | 112.93172 | 29621 ft | 398 kts | 285° |
| 2026-04-29 09:07 | 33.99675 | 112.90032 | 30121 ft | 395 kts | 285° |
| 2026-04-29 09:07 | 34.00499 | 112.86839 | 30233 ft | 400 kts | 285° |
| 2026-04-29 09:07 | 34.01331 | 112.83616 | 30231 ft | 397 kts | 285° |
| 2026-04-29 09:08 | 34.02973 | 112.77246 | 30236 ft | 398 kts | 285° |
| 2026-04-29 09:08 | 34.04600 | 112.70890 | 30238 ft | 396 kts | 285° |
| 2026-04-29 09:09 | 34.06233 | 112.64493 | 30237 ft | 397 kts | 285° |
| 2026-04-29 09:09 | 34.07846 | 112.58174 | 30238 ft | 394 kts | 285° |
| 2026-04-29 09:10 | 34.09461 | 112.51807 | 30235 ft | 395 kts | 285° |
| 2026-04-29 09:10 | 34.10656 | 112.45367 | 30227 ft | 393 kts | 275° |
| 2026-04-29 09:11 | 34.10622 | 112.38711 | 30233 ft | 395 kts | 266° |
| 2026-04-29 09:11 | 34.10007 | 112.32121 | 30225 ft | 396 kts | 264° |
| 2026-04-29 09:12 | 34.09347 | 112.25533 | 30232 ft | 395 kts | 264° |
| 2026-04-29 09:12 | 34.08742 | 112.18909 | 30230 ft | 396 kts | 265° |
| 2026-04-29 09:13 | 34.08156 | 112.12290 | 30235 ft | 398 kts | 265° |
| 2026-04-29 09:13 | 34.07570 | 112.05642 | 30230 ft | 396 kts | 265° |
| 2026-04-29 09:14 | 34.06984 | 111.99017 | 30233 ft | 397 kts | 265° |
| 2026-04-29 09:14 | 34.06393 | 111.92365 | 30230 ft | 397 kts | 265° |
| 2026-04-29 09:15 | 34.05799 | 111.85766 | 30232 ft | 397 kts | 265° |
| 2026-04-29 09:15 | 34.05201 | 111.79140 | 30234 ft | 396 kts | 265° |
| 2026-04-29 09:16 | 34.04595 | 111.72475 | 30230 ft | 397 kts | 266° |
| 2026-04-29 09:16 | 34.03987 | 111.65836 | 30234 ft | 396 kts | 265° |
| 2026-04-29 09:17 | 34.03381 | 111.59272 | 30233 ft | 395 kts | 266° |
| 2026-04-29 09:17 | 34.02771 | 111.52666 | 30238 ft | 396 kts | 266° |
| 2026-04-29 09:18 | 34.02155 | 111.46055 | 30242 ft | 395 kts | 266° |
| 2026-04-29 09:18 | 34.01533 | 111.39427 | 30242 ft | 396 kts | 266° |
| 2026-04-29 09:19 | 34.00911 | 111.32811 | 30245 ft | 396 kts | 265° |
| 2026-04-29 09:19 | 34.00285 | 111.26202 | 30242 ft | 395 kts | 266° |
| 2026-04-29 09:20 | 33.99657 | 111.19621 | 30241 ft | 395 kts | 266° |
| 2026-04-29 09:20 | 33.99028 | 111.13062 | 30244 ft | 394 kts | 266° |
| 2026-04-29 09:21 | 33.98394 | 111.06500 | 30234 ft | 396 kts | 266° |
| 2026-04-29 09:21 | 33.97754 | 110.99895 | 30226 ft | 395 kts | 266° |
| 2026-04-29 09:22 | 33.97117 | 110.93357 | 30233 ft | 395 kts | 266° |
| 2026-04-29 09:22 | 33.96467 | 110.86735 | 30223 ft | 396 kts | 266° |
| 2026-04-29 09:23 | 33.95819 | 110.80171 | 30229 ft | 395 kts | 266° |
| 2026-04-29 09:23 | 33.95163 | 110.73561 | 30229 ft | 395 kts | 266° |
| 2026-04-29 09:24 | 33.94510 | 110.66983 | 30230 ft | 395 kts | 266° |
| 2026-04-29 09:24 | 33.93850 | 110.60410 | 30225 ft | 394 kts | 266° |
| 2026-04-29 09:25 | 33.93214 | 110.53838 | 30225 ft | 395 kts | 266° |
| 2026-04-29 09:25 | 33.92622 | 110.47223 | 30224 ft | 395 kts | 267° |
| 2026-04-29 09:26 | 33.92040 | 110.40686 | 30229 ft | 394 kts | 267° |
| 2026-04-29 09:26 | 33.91443 | 110.34089 | 30229 ft | 397 kts | 266° |
| 2026-04-29 09:27 | 33.90841 | 110.27509 | 30229 ft | 396 kts | 266° |
| 2026-04-29 09:27 | 33.90234 | 110.20907 | 30225 ft | 396 kts | 266° |
| 2026-04-29 09:28 | 33.89616 | 110.14257 | 30226 ft | 396 kts | 266° |
| 2026-04-29 09:28 | 33.88999 | 110.07655 | 30228 ft | 396 kts | 266° |
| 2026-04-29 09:29 | 33.88367 | 110.00944 | 30226 ft | 397 kts | 266° |
| 2026-04-29 09:29 | 33.88152 | 109.94205 | 30235 ft | 393 kts | 277° |
| 2026-04-29 09:29 | 33.88620 | 109.91001 | 30230 ft | 391 kts | 285° |
| 2026-04-29 09:30 | 33.90373 | 109.84711 | 30223 ft | 392 kts | 291° |
| 2026-04-29 09:30 | 33.92393 | 109.78611 | 30223 ft | 391 kts | 292° |
| 2026-04-29 09:31 | 33.94422 | 109.72523 | 30223 ft | 391 kts | 291° |
| 2026-04-29 09:31 | 33.96411 | 109.66450 | 30223 ft | 391 kts | 291° |
| 2026-04-29 09:32 | 33.98380 | 109.60363 | 30224 ft | 391 kts | 291° |
| 2026-04-29 09:32 | 34.00336 | 109.54276 | 30234 ft | 391 kts | 291° |
| 2026-04-29 09:33 | 34.02286 | 109.48185 | 30228 ft | 390 kts | 291° |
| 2026-04-29 09:33 | 34.04247 | 109.42052 | 30228 ft | 392 kts | 291° |
| 2026-04-29 09:34 | 34.06201 | 109.35925 | 30217 ft | 392 kts | 291° |
| 2026-04-29 09:34 | 34.08161 | 109.29764 | 30215 ft | 391 kts | 291° |
| 2026-04-29 09:35 | 34.10109 | 109.23633 | 30210 ft | 390 kts | 291° |
| 2026-04-29 09:35 | 34.12053 | 109.17499 | 30214 ft | 391 kts | 291° |
| 2026-04-29 09:36 | 34.13982 | 109.11399 | 30206 ft | 389 kts | 291° |
| 2026-04-29 09:36 | 34.15934 | 109.05215 | 30205 ft | 392 kts | 291° |
| 2026-04-29 09:37 | 34.17867 | 108.99079 | 30194 ft | 390 kts | 291° |
| 2026-04-29 09:37 | 34.20054 | 108.93083 | 30191 ft | 391 kts | 300° |
| 2026-04-29 09:38 | 34.23603 | 108.88081 | 30183 ft | 395 kts | 317° |
| 2026-04-29 09:38 | 34.28233 | 108.84255 | 30505 ft | 406 kts | 328° |
| 2026-04-29 09:39 | 34.30834 | 108.82809 | 30928 ft | 410 kts | 334° |
| 2026-04-29 09:39 | 34.33551 | 108.81750 | 31471 ft | 410 kts | 340° |
| 2026-04-29 09:39 | 34.36354 | 108.80983 | 31930 ft | 410 kts | 342° |
| 2026-04-29 09:39 | 34.39163 | 108.80346 | 32174 ft | 413 kts | 343° |
| 2026-04-29 09:40 | 34.44831 | 108.79094 | 32173 ft | 410 kts | 343° |
| 2026-04-29 09:40 | 34.50490 | 108.77715 | 32175 ft | 408 kts | 342° |
| 2026-04-29 09:41 | 34.56086 | 108.76239 | 32182 ft | 409 kts | 341° |
| 2026-04-29 09:41 | 34.61654 | 108.74726 | 32196 ft | 408 kts | 341° |
| 2026-04-29 09:42 | 34.67258 | 108.73184 | 32194 ft | 407 kts | 341° |
| 2026-04-29 09:42 | 34.72681 | 108.71427 | 32199 ft | 402 kts | 334° |
| 2026-04-29 09:43 | 34.77470 | 108.68032 | 32207 ft | 391 kts | 317° |
| 2026-04-29 09:43 | 34.81375 | 108.63399 | 32200 ft | 390 kts | 311° |
| 2026-04-29 09:44 | 34.85027 | 108.58464 | 32205 ft | 389 kts | 310° |
| 2026-04-29 09:44 | 34.88636 | 108.53518 | 32223 ft | 390 kts | 310° |
| 2026-04-29 09:45 | 34.92242 | 108.48602 | 32224 ft | 389 kts | 310° |
| 2026-04-29 09:45 | 34.95892 | 108.43643 | 32234 ft | 391 kts | 310° |
| 2026-04-29 09:46 | 34.99520 | 108.38720 | 32231 ft | 390 kts | 310° |
| 2026-04-29 09:46 | 35.03196 | 108.33727 | 32230 ft | 392 kts | 310° |
| 2026-04-29 09:47 | 35.06838 | 108.28772 | 32225 ft | 389 kts | 310° |
| 2026-04-29 09:47 | 35.10471 | 108.23824 | 32226 ft | 390 kts | 310° |
| 2026-04-29 09:48 | 35.14081 | 108.18898 | 32225 ft | 390 kts | 310° |
| 2026-04-29 09:48 | 35.17709 | 108.13940 | 32225 ft | 390 kts | 310° |
| 2026-04-29 09:49 | 35.21342 | 108.08969 | 32219 ft | 392 kts | 310° |
| 2026-04-29 09:49 | 35.24984 | 108.03978 | 32203 ft | 391 kts | 310° |
| 2026-04-29 09:50 | 35.28608 | 107.99006 | 32203 ft | 392 kts | 310° |
| 2026-04-29 09:50 | 35.32250 | 107.94002 | 32210 ft | 392 kts | 310° |
| 2026-04-29 09:51 | 35.35878 | 107.89011 | 32213 ft | 392 kts | 311° |
| 2026-04-29 09:51 | 35.39533 | 107.83991 | 32219 ft | 391 kts | 311° |
| 2026-04-29 09:52 | 35.43168 | 107.79004 | 32225 ft | 392 kts | 311° |
| 2026-04-29 09:52 | 35.46848 | 107.74033 | 32230 ft | 390 kts | 313° |
| 2026-04-29 09:53 | 35.51187 | 107.69991 | 32233 ft | 396 kts | 330° |
| 2026-04-29 09:53 | 35.56467 | 107.67731 | 32233 ft | 403 kts | 341° |
| 2026-04-29 09:54 | 35.61962 | 107.66247 | 32231 ft | 403 kts | 344° |
| 2026-04-29 09:54 | 35.67487 | 107.64869 | 32229 ft | 403 kts | 343° |
| 2026-04-29 09:55 | 35.72680 | 107.62487 | 32232 ft | 395 kts | 325° |
| 2026-04-29 09:55 | 35.76849 | 107.58141 | 32233 ft | 390 kts | 312° |
| 2026-04-29 09:56 | 35.80104 | 107.52782 | 32231 ft | 392 kts | 299° |
| 2026-04-29 09:56 | 35.82048 | 107.46450 | 32232 ft | 395 kts | 289° |
| 2026-04-29 09:57 | 35.83514 | 107.39916 | 32235 ft | 396 kts | 288° |
| 2026-04-29 09:57 | 35.84922 | 107.33392 | 32237 ft | 396 kts | 288° |
| 2026-04-29 09:58 | 35.86373 | 107.26792 | 32240 ft | 397 kts | 288° |
| 2026-04-29 09:58 | 35.87828 | 107.20232 | 32242 ft | 397 kts | 288° |
| 2026-04-29 09:59 | 35.89292 | 107.13650 | 32242 ft | 397 kts | 288° |
| 2026-04-29 09:59 | 35.90737 | 107.07040 | 32241 ft | 397 kts | 288° |
| 2026-04-29 10:00 | 35.92093 | 107.00441 | 32240 ft | 398 kts | 287° |
| 2026-04-29 10:00 | 35.93436 | 106.93817 | 32247 ft | 398 kts | 288° |
| 2026-04-29 10:01 | 35.94783 | 106.87197 | 32250 ft | 398 kts | 287° |
| 2026-04-29 10:01 | 35.96136 | 106.80557 | 32257 ft | 399 kts | 288° |
| 2026-04-29 10:02 | 35.97490 | 106.73898 | 32261 ft | 399 kts | 288° |
| 2026-04-29 10:02 | 35.98836 | 106.67266 | 32266 ft | 401 kts | 287° |
| 2026-04-29 10:03 | 36.00191 | 106.60564 | 32268 ft | 401 kts | 288° |
| 2026-04-29 10:03 | 36.01546 | 106.53851 | 32267 ft | 402 kts | 287° |
| 2026-04-29 10:04 | 36.02890 | 106.47164 | 32267 ft | 402 kts | 288° |
| 2026-04-29 10:04 | 36.04242 | 106.40427 | 32271 ft | 402 kts | 288° |
| 2026-04-29 10:05 | 36.05578 | 106.33740 | 32278 ft | 404 kts | 287° |
| 2026-04-29 10:05 | 36.06919 | 106.27007 | 32283 ft | 403 kts | 287° |
| 2026-04-29 10:06 | 36.08264 | 106.20252 | 32280 ft | 403 kts | 288° |
| 2026-04-29 10:06 | 36.09712 | 106.13584 | 32279 ft | 401 kts | 289° |
| 2026-04-29 10:07 | 36.11224 | 106.06898 | 32274 ft | 404 kts | 289° |
| 2026-04-29 10:07 | 36.12727 | 106.00212 | 32279 ft | 403 kts | 289° |
| 2026-04-29 10:08 | 36.14213 | 105.93521 | 32274 ft | 404 kts | 289° |
| 2026-04-29 10:08 | 36.15703 | 105.86764 | 32275 ft | 405 kts | 289° |
| 2026-04-29 10:09 | 36.17170 | 105.80080 | 32262 ft | 404 kts | 289° |
| 2026-04-29 10:09 | 36.18651 | 105.73315 | 32272 ft | 405 kts | 288° |
| 2026-04-29 10:10 | 36.20122 | 105.66569 | 32263 ft | 405 kts | 289° |
| 2026-04-29 10:10 | 36.21588 | 105.59827 | 32251 ft | 406 kts | 289° |
| 2026-04-29 10:11 | 36.23060 | 105.53033 | 32250 ft | 406 kts | 289° |
| 2026-04-29 10:11 | 36.24520 | 105.46281 | 32256 ft | 406 kts | 289° |
| 2026-04-29 10:12 | 36.25986 | 105.39482 | 32253 ft | 408 kts | 289° |
| 2026-04-29 10:12 | 36.27437 | 105.32726 | 32250 ft | 408 kts | 288° |
| 2026-04-29 10:13 | 36.28900 | 105.25899 | 32244 ft | 408 kts | 288° |
| 2026-04-29 10:13 | 36.30356 | 105.19086 | 32248 ft | 409 kts | 288° |
| 2026-04-29 10:14 | 36.31813 | 105.12266 | 32245 ft | 408 kts | 288° |
| 2026-04-29 10:14 | 36.33275 | 105.05419 | 32236 ft | 408 kts | 289° |
| 2026-04-29 10:15 | 36.34724 | 104.98619 | 32226 ft | 408 kts | 288° |
| 2026-04-29 10:15 | 36.36175 | 104.91789 | 32229 ft | 409 kts | 288° |
| 2026-04-29 10:16 | 36.37627 | 104.84931 | 32236 ft | 410 kts | 288° |
| 2026-04-29 10:16 | 36.39063 | 104.78119 | 32230 ft | 409 kts | 288° |
| 2026-04-29 10:17 | 36.40507 | 104.71262 | 32229 ft | 407 kts | 288° |
| 2026-04-29 10:17 | 36.41946 | 104.64410 | 32223 ft | 409 kts | 288° |
| 2026-04-29 10:18 | 36.43374 | 104.57579 | 32225 ft | 407 kts | 288° |
| 2026-04-29 10:18 | 36.44801 | 104.50736 | 32220 ft | 408 kts | 288° |
| 2026-04-29 10:19 | 36.46220 | 104.43901 | 32211 ft | 407 kts | 288° |
| 2026-04-29 10:19 | 36.47684 | 104.37040 | 32215 ft | 408 kts | 290° |
| 2026-04-29 10:20 | 36.49706 | 104.30524 | 32226 ft | 402 kts | 298° |
| 2026-04-29 10:20 | 36.52291 | 104.24342 | 32224 ft | 403 kts | 300° |
| 2026-04-29 10:21 | 36.54983 | 104.18201 | 32224 ft | 401 kts | 300° |
| 2026-04-29 10:21 | 36.57648 | 104.12059 | 32233 ft | 401 kts | 300° |
| 2026-04-29 10:22 | 36.60281 | 104.05917 | 32236 ft | 402 kts | 300° |
| 2026-04-29 10:22 | 36.62916 | 103.99757 | 32239 ft | 402 kts | 300° |
| 2026-04-29 10:23 | 36.65597 | 103.93604 | 32257 ft | 402 kts | 300° |
| 2026-04-29 10:23 | 36.68276 | 103.87474 | 32246 ft | 404 kts | 301° |
| 2026-04-29 10:24 | 36.70953 | 103.81319 | 32254 ft | 402 kts | 300° |
| 2026-04-29 10:24 | 36.73614 | 103.75181 | 32265 ft | 403 kts | 300° |
| 2026-04-29 10:25 | 36.76273 | 103.69034 | 32279 ft | 403 kts | 300° |
| 2026-04-29 10:25 | 36.78945 | 103.62840 | 32298 ft | 404 kts | 300° |
| 2026-04-29 10:26 | 36.81603 | 103.56671 | 32298 ft | 405 kts | 300° |
| 2026-04-29 10:26 | 36.84259 | 103.50495 | 32310 ft | 404 kts | 300° |
| 2026-04-29 10:27 | 36.88245 | 103.41199 | 32342 ft | 403 kts | 300° |
| 2026-04-29 10:28 | 36.90887 | 103.35026 | 32341 ft | 403 kts | 300° |
| 2026-04-29 10:28 | 36.93534 | 103.28824 | 32337 ft | 403 kts | 299° |
| 2026-04-29 10:29 | 36.96361 | 103.22792 | 32345 ft | 403 kts | 303° |
| 2026-04-29 10:29 | 36.99374 | 103.16937 | 32354 ft | 403 kts | 304° |
| 2026-04-29 10:30 | 37.00911 | 103.13966 | 32353 ft | 404 kts | 304° |